Forside
METAR-TAF:

METAR-TAF

Lufthavne :

Newton Municipal Airport

Newton, Iowa, USA

Breddekreds: 41-41N, længdekreds: 093-01W, højde: 290 m

Aktuelle vejr

Denne rapport blev lavet for 35 minutter siden, kl. 18:35 UTC
Vind 11 kt fra sydsydvest
Temperatur 7°C
Fugtighed 57%
Tryk 1018 hPa
Sigt: 16.1 km
skyfri

METAR: KTNU 221835Z AUTO 20011KT 10SM CLR 07/M01 A3007 RMK A01

Tid: 13:10 (19:10 UTC)


TAF: fraværende

Vejrobservationer og prognoser fra mere end 4000 lufthavne (METAR og TAF).

De gule og røde prikker repræsenterer de meteorologiske stationer.

Flyt musen over at se navnet på stationen.

Så klik over at se vejr observationer og prognoser.

At skifte det kort: Klik på de grønne knapper med et sort kors for at zoome ind; på den grønne knap med en bindestreg for at zoome ud; eller på de grønne pile for tilstødende kort.


METAR-TAF: